sensor_id;sensor_type;location;lat;lon;timestamp;temperature;humidity
52531;DHT22;38441;52.894;6.040;2023-12-29T14:08:16;9.00;99.90
52531;DHT22;38441;52.894;6.040;2023-12-29T14:10:44;8.80;99.90
52531;DHT22;38441;52.894;6.040;2023-12-29T14:13:12;8.80;99.90
52531;DHT22;38441;52.894;6.040;2023-12-29T14:15:42;8.80;99.90
52531;DHT22;38441;52.894;6.040;2023-12-29T14:18:28;8.80;99.90
52531;DHT22;38441;52.894;6.040;2023-12-29T14:20:55;8.80;99.90
52531;DHT22;38441;52.894;6.040;2023-12-29T14:23:20;8.80;99.90
52531;DHT22;38441;52.894;6.040;2023-12-29T14:25:46;8.90;99.90
52531;DHT22;38441;52.894;6.040;2023-12-29T14:28:20;8.60;99.90
52531;DHT22;38441;52.894;6.040;2023-12-29T14:30:48;8.70;99.90
52531;DHT22;38441;52.894;6.040;2023-12-29T14:33:14;8.80;99.90
52531;DHT22;38441;52.894;6.040;2023-12-29T14:35:40;8.70;99.90
52531;DHT22;38441;52.894;6.040;2023-12-29T14:38:06;8.80;99.90
52531;DHT22;38441;52.894;6.040;2023-12-29T14:40:32;8.60;99.90
52531;DHT22;38441;52.894;6.040;2023-12-29T14:43:03;8.70;99.90
52531;DHT22;38441;52.894;6.040;2023-12-29T14:45:29;8.90;99.90
52531;DHT22;38441;52.894;6.040;2023-12-29T14:47:56;8.70;99.90
52531;DHT22;38441;52.894;6.040;2023-12-29T14:50:22;8.70;99.90
52531;DHT22;38441;52.894;6.040;2023-12-29T14:52:48;8.70;99.90
52531;DHT22;38441;52.894;6.040;2023-12-29T14:55:14;8.80;99.90
52531;DHT22;38441;52.894;6.040;2023-12-29T14:57:39;8.70;99.90
52531;DHT22;38441;52.894;6.040;2023-12-29T15:00:06;8.70;99.90
52531;DHT22;38441;52.894;6.040;2023-12-29T15:02:31;8.90;99.90
52531;DHT22;38441;52.894;6.040;2023-12-29T15:04:57;8.70;99.90
52531;DHT22;38441;52.894;6.040;2023-12-29T15:07:22;8.60;99.90
52531;DHT22;38441;52.894;6.040;2023-12-29T15:09:53;8.80;99.90
52531;DHT22;38441;52.894;6.040;2023-12-29T15:12:19;8.80;99.90
52531;DHT22;38441;52.894;6.040;2023-12-29T15:14:44;8.70;99.90
52531;DHT22;38441;52.894;6.040;2023-12-29T15:17:10;8.70;99.90
52531;DHT22;38441;52.894;6.040;2023-12-29T15:19:36;8.70;99.90
52531;DHT22;38441;52.894;6.040;2023-12-29T15:22:01;8.80;99.90
52531;DHT22;38441;52.894;6.040;2023-12-29T15:24:27;8.80;99.90
52531;DHT22;38441;52.894;6.040;2023-12-29T15:26:52;8.60;99.90
52531;DHT22;38441;52.894;6.040;2023-12-29T15:29:18;8.60;99.90
52531;DHT22;38441;52.894;6.040;2023-12-29T15:31:44;8.80;99.90
52531;DHT22;38441;52.894;6.040;2023-12-29T15:34:10;8.70;99.90
52531;DHT22;38441;52.894;6.040;2023-12-29T15:36:36;8.80;99.90
52531;DHT22;38441;52.894;6.040;2023-12-29T15:39:02;8.80;99.90
52531;DHT22;38441;52.894;6.040;2023-12-29T15:41:31;8.70;99.90
52531;DHT22;38441;52.894;6.040;2023-12-29T15:43:57;8.70;99.90
52531;DHT22;38441;52.894;6.040;2023-12-29T15:46:23;8.70;99.90
52531;DHT22;38441;52.894;6.040;2023-12-29T15:48:48;8.80;99.90
52531;DHT22;38441;52.894;6.040;2023-12-29T15:51:14;8.90;99.90
52531;DHT22;38441;52.894;6.040;2023-12-29T15:53:40;8.80;99.90
52531;DHT22;38441;52.894;6.040;2023-12-29T15:56:06;8.80;99.90
52531;DHT22;38441;52.894;6.040;2023-12-29T15:58:32;8.70;99.90
52531;DHT22;38441;52.894;6.040;2023-12-29T16:00:58;8.70;99.90
52531;DHT22;38441;52.894;6.040;2023-12-29T16:03:24;8.70;99.90
52531;DHT22;38441;52.894;6.040;2023-12-29T16:05:50;8.60;99.90
52531;DHT22;38441;52.894;6.040;2023-12-29T16:08:15;8.80;99.90
52531;DHT22;38441;52.894;6.040;2023-12-29T16:10:41;8.70;99.90
52531;DHT22;38441;52.894;6.040;2023-12-29T16:13:07;8.60;99.90
52531;DHT22;38441;52.894;6.040;2023-12-29T16:15:33;8.70;99.90
52531;DHT22;38441;52.894;6.040;2023-12-29T16:17:58;8.50;99.90
52531;DHT22;38441;52.894;6.040;2023-12-29T16:20:26;8.60;99.90
52531;DHT22;38441;52.894;6.040;2023-12-29T16:22:52;8.70;99.90
52531;DHT22;38441;52.894;6.040;2023-12-29T16:25:19;8.60;99.90
52531;DHT22;38441;52.894;6.040;2023-12-29T16:27:45;8.50;99.90
52531;DHT22;38441;52.894;6.040;2023-12-29T16:30:11;8.60;99.90
52531;DHT22;38441;52.894;6.040;2023-12-29T16:32:37;8.60;99.90
52531;DHT22;38441;52.894;6.040;2023-12-29T16:35:03;8.40;99.90
52531;DHT22;38441;52.894;6.040;2023-12-29T16:37:37;8.60;99.90
52531;DHT22;38441;52.894;6.040;2023-12-29T16:40:03;8.50;99.90
52531;DHT22;38441;52.894;6.040;2023-12-29T16:42:29;8.50;99.90
52531;DHT22;38441;52.894;6.040;2023-12-29T16:44:54;8.50;99.90
52531;DHT22;38441;52.894;6.040;2023-12-29T16:47:20;8.60;99.90
52531;DHT22;38441;52.894;6.040;2023-12-29T16:49:46;8.40;99.90
52531;DHT22;38441;52.894;6.040;2023-12-29T16:52:11;8.60;99.90
52531;DHT22;38441;52.894;6.040;2023-12-29T16:54:37;8.60;99.90
52531;DHT22;38441;52.894;6.040;2023-12-29T16:57:03;8.50;99.90
52531;DHT22;38441;52.894;6.040;2023-12-29T16:59:29;8.40;99.90
52531;DHT22;38441;52.894;6.040;2023-12-29T17:01:55;8.40;99.90
52531;DHT22;38441;52.894;6.040;2023-12-29T17:04:25;8.40;99.90
52531;DHT22;38441;52.894;6.040;2023-12-29T17:06:51;8.40;99.90
52531;DHT22;38441;52.894;6.040;2023-12-29T17:09:17;8.40;99.90
52531;DHT22;38441;52.894;6.040;2023-12-29T17:11:44;8.30;99.90
52531;DHT22;38441;52.894;6.040;2023-12-29T17:14:10;8.20;99.90
52531;DHT22;38441;52.894;6.040;2023-12-29T17:16:39;8.20;99.90
52531;DHT22;38441;52.894;6.040;2023-12-29T17:19:05;8.20;99.90
52531;DHT22;38441;52.894;6.040;2023-12-29T17:21:31;8.30;99.90
52531;DHT22;38441;52.894;6.040;2023-12-29T17:23:56;8.20;99.90
52531;DHT22;38441;52.894;6.040;2023-12-29T17:26:22;8.10;99.90
52531;DHT22;38441;52.894;6.040;2023-12-29T17:28:48;8.30;99.90
52531;DHT22;38441;52.894;6.040;2023-12-29T17:31:17;8.20;99.90
52531;DHT22;38441;52.894;6.040;2023-12-29T17:33:42;8.10;99.90
52531;DHT22;38441;52.894;6.040;2023-12-29T17:36:09;8.20;99.90
52531;DHT22;38441;52.894;6.040;2023-12-29T17:38:38;8.10;99.90
52531;DHT22;38441;52.894;6.040;2023-12-29T17:41:04;8.10;99.90
52531;DHT22;38441;52.894;6.040;2023-12-29T17:43:30;8.10;99.90
52531;DHT22;38441;52.894;6.040;2023-12-29T17:45:57;8.00;99.90
52531;DHT22;38441;52.894;6.040;2023-12-29T17:48:23;8.10;99.90
52531;DHT22;38441;52.894;6.040;2023-12-29T17:50:48;8.10;99.90
52531;DHT22;38441;52.894;6.040;2023-12-29T17:53:15;8.10;99.90
52531;DHT22;38441;52.894;6.040;2023-12-29T17:55:43;7.80;99.90
52531;DHT22;38441;52.894;6.040;2023-12-29T17:58:09;8.00;99.90
52531;DHT22;38441;52.894;6.040;2023-12-29T18:00:35;7.90;99.90
52531;DHT22;38441;52.894;6.040;2023-12-29T18:03:01;7.90;99.90
52531;DHT22;38441;52.894;6.040;2023-12-29T18:05:27;8.00;99.90
52531;DHT22;38441;52.894;6.040;2023-12-29T18:07:53;8.00;99.90
52531;DHT22;38441;52.894;6.040;2023-12-29T18:10:18;8.10;99.90
52531;DHT22;38441;52.894;6.040;2023-12-29T18:12:44;8.00;99.90
52531;DHT22;38441;52.894;6.040;2023-12-29T18:15:10;8.00;99.90
52531;DHT22;38441;52.894;6.040;2023-12-29T18:17:38;7.90;99.90
52531;DHT22;38441;52.894;6.040;2023-12-29T18:20:05;7.90;99.90
52531;DHT22;38441;52.894;6.040;2023-12-29T18:22:30;7.90;99.90
52531;DHT22;38441;52.894;6.040;2023-12-29T18:24:56;8.00;99.90
52531;DHT22;38441;52.894;6.040;2023-12-29T18:27:22;7.90;99.90
52531;DHT22;38441;52.894;6.040;2023-12-29T18:29:48;8.00;99.90
52531;DHT22;38441;52.894;6.040;2023-12-29T18:32:13;7.90;99.90
52531;DHT22;38441;52.894;6.040;2023-12-29T18:34:39;7.70;99.90
52531;DHT22;38441;52.894;6.040;2023-12-29T18:37:05;7.80;99.90
52531;DHT22;38441;52.894;6.040;2023-12-29T18:39:30;7.90;99.90
52531;DHT22;38441;52.894;6.040;2023-12-29T18:41:56;7.90;99.90
52531;DHT22;38441;52.894;6.040;2023-12-29T18:44:25;7.70;99.90
52531;DHT22;38441;52.894;6.040;2023-12-29T18:46:50;7.70;99.90
52531;DHT22;38441;52.894;6.040;2023-12-29T18:49:16;7.70;99.90
52531;DHT22;38441;52.894;6.040;2023-12-29T18:51:42;7.60;99.90
52531;DHT22;38441;52.894;6.040;2023-12-29T18:54:11;7.80;99.90
52531;DHT22;38441;52.894;6.040;2023-12-29T18:56:37;7.80;99.90
52531;DHT22;38441;52.894;6.040;2023-12-29T18:59:04;7.60;99.90
52531;DHT22;38441;52.894;6.040;2023-12-29T19:01:32;7.60;99.90
52531;DHT22;38441;52.894;6.040;2023-12-29T19:03:57;7.70;99.90
52531;DHT22;38441;52.894;6.040;2023-12-29T19:06:26;7.80;99.90
52531;DHT22;38441;52.894;6.040;2023-12-29T19:08:52;7.60;99.90
52531;DHT22;38441;52.894;6.040;2023-12-29T19:11:21;7.50;99.90
52531;DHT22;38441;52.894;6.040;2023-12-29T19:13:47;7.40;99.90
52531;DHT22;38441;52.894;6.040;2023-12-29T19:16:22;7.60;99.90
52531;DHT22;38441;52.894;6.040;2023-12-29T19:18:48;7.50;99.90
52531;DHT22;38441;52.894;6.040;2023-12-29T19:21:15;7.60;99.90
52531;DHT22;38441;52.894;6.040;2023-12-29T19:23:41;7.60;99.90
52531;DHT22;38441;52.894;6.040;2023-12-29T19:26:06;7.60;99.90
52531;DHT22;38441;52.894;6.040;2023-12-29T19:28:32;7.40;99.90
52531;DHT22;38441;52.894;6.040;2023-12-29T19:30:58;7.50;99.90
52531;DHT22;38441;52.894;6.040;2023-12-29T19:33:24;7.50;99.90
52531;DHT22;38441;52.894;6.040;2023-12-29T19:35:49;7.60;99.90
52531;DHT22;38441;52.894;6.040;2023-12-29T19:38:15;7.30;99.90
52531;DHT22;38441;52.894;6.040;2023-12-29T19:40:42;7.40;99.90
52531;DHT22;38441;52.894;6.040;2023-12-29T19:43:10;7.90;99.90
52531;DHT22;38441;52.894;6.040;2023-12-29T19:45:35;7.40;99.90
52531;DHT22;38441;52.894;6.040;2023-12-29T19:48:02;7.40;99.90
52531;DHT22;38441;52.894;6.040;2023-12-29T19:50:29;7.30;99.90
52531;DHT22;38441;52.894;6.040;2023-12-29T19:52:55;7.40;99.90
52531;DHT22;38441;52.894;6.040;2023-12-29T19:55:20;7.40;99.90
52531;DHT22;38441;52.894;6.040;2023-12-29T19:57:46;7.30;99.90
52531;DHT22;38441;52.894;6.040;2023-12-29T20:00:12;7.60;99.90
52531;DHT22;38441;52.894;6.040;2023-12-29T20:02:41;7.40;99.90
52531;DHT22;38441;52.894;6.040;2023-12-29T20:05:06;7.50;99.90
52531;DHT22;38441;52.894;6.040;2023-12-29T20:07:32;7.30;99.90
52531;DHT22;38441;52.894;6.040;2023-12-29T20:09:58;7.50;99.90
52531;DHT22;38441;52.894;6.040;2023-12-29T20:12:23;7.20;99.90
52531;DHT22;38441;52.894;6.040;2023-12-29T20:14:49;7.90;99.90
52531;DHT22;38441;52.894;6.040;2023-12-29T20:17:17;7.40;99.90
52531;DHT22;38441;52.894;6.040;2023-12-29T20:19:42;7.50;99.90
52531;DHT22;38441;52.894;6.040;2023-12-29T20:22:08;7.20;99.90
52531;DHT22;38441;52.894;6.040;2023-12-29T20:24:39;7.70;99.90
52531;DHT22;38441;52.894;6.040;2023-12-29T20:27:04;7.70;99.90
52531;DHT22;38441;52.894;6.040;2023-12-29T20:29:30;7.70;99.90
52531;DHT22;38441;52.894;6.040;2023-12-29T20:31:56;7.40;99.90
52531;DHT22;38441;52.894;6.040;2023-12-29T20:34:21;7.50;99.90
52531;DHT22;38441;52.894;6.040;2023-12-29T20:36:47;7.60;99.90
52531;DHT22;38441;52.894;6.040;2023-12-29T20:39:12;7.50;99.90
52531;DHT22;38441;52.894;6.040;2023-12-29T20:41:38;7.60;99.90
52531;DHT22;38441;52.894;6.040;2023-12-29T20:44:04;7.80;99.90
52531;DHT22;38441;52.894;6.040;2023-12-29T20:46:29;7.70;99.90
52531;DHT22;38441;52.894;6.040;2023-12-29T20:48:55;7.60;99.90
52531;DHT22;38441;52.894;6.040;2023-12-29T20:51:21;7.70;99.90
52531;DHT22;38441;52.894;6.040;2023-12-29T20:53:50;7.70;99.90
52531;DHT22;38441;52.894;6.040;2023-12-29T20:56:16;7.90;99.90
52531;DHT22;38441;52.894;6.040;2023-12-29T20:58:42;7.80;99.90
52531;DHT22;38441;52.894;6.040;2023-12-29T21:01:10;7.70;99.90
52531;DHT22;38441;52.894;6.040;2023-12-29T21:03:36;8.00;99.90
52531;DHT22;38441;52.894;6.040;2023-12-29T21:06:03;7.60;99.90
52531;DHT22;38441;52.894;6.040;2023-12-29T21:08:32;7.70;99.90
52531;DHT22;38441;52.894;6.040;2023-12-29T21:10:58;7.60;99.90
52531;DHT22;38441;52.894;6.040;2023-12-29T21:13:25;7.90;99.90
52531;DHT22;38441;52.894;6.040;2023-12-29T21:16:01;7.60;99.90
52531;DHT22;38441;52.894;6.040;2023-12-29T21:18:26;7.70;99.90
52531;DHT22;38441;52.894;6.040;2023-12-29T21:21:11;7.90;99.90
52531;DHT22;38441;52.894;6.040;2023-12-29T21:23:37;7.70;99.90
52531;DHT22;38441;52.894;6.040;2023-12-29T21:26:03;7.70;99.90
52531;DHT22;38441;52.894;6.040;2023-12-29T21:28:29;7.60;99.90
52531;DHT22;38441;52.894;6.040;2023-12-29T21:30:58;7.60;99.90
52531;DHT22;38441;52.894;6.040;2023-12-29T21:33:23;7.60;99.90
52531;DHT22;38441;52.894;6.040;2023-12-29T21:35:50;7.80;99.90
52531;DHT22;38441;52.894;6.040;2023-12-29T21:38:18;7.40;99.90
52531;DHT22;38441;52.894;6.040;2023-12-29T21:40:44;7.80;99.90
52531;DHT22;38441;52.894;6.040;2023-12-29T21:43:09;7.60;99.90
52531;DHT22;38441;52.894;6.040;2023-12-29T21:45:35;7.20;99.90
52531;DHT22;38441;52.894;6.040;2023-12-29T21:48:01;7.50;99.90
52531;DHT22;38441;52.894;6.040;2023-12-29T21:50:27;7.10;99.90
52531;DHT22;38441;52.894;6.040;2023-12-29T21:52:54;7.30;99.90
52531;DHT22;38441;52.894;6.040;2023-12-29T21:55:20;7.00;99.90
52531;DHT22;38441;52.894;6.040;2023-12-29T21:57:47;7.00;99.90
52531;DHT22;38441;52.894;6.040;2023-12-29T22:00:13;7.00;99.90
52531;DHT22;38441;52.894;6.040;2023-12-29T22:02:42;7.20;99.90
52531;DHT22;38441;52.894;6.040;2023-12-29T22:05:08;7.20;99.90
52531;DHT22;38441;52.894;6.040;2023-12-29T22:07:34;7.70;99.90
52531;DHT22;38441;52.894;6.040;2023-12-29T22:10:05;7.30;99.90
52531;DHT22;38441;52.894;6.040;2023-12-29T22:12:31;7.20;99.90
52531;DHT22;38441;52.894;6.040;2023-12-29T22:15:00;7.20;99.90
52531;DHT22;38441;52.894;6.040;2023-12-29T22:17:26;7.30;99.90
52531;DHT22;38441;52.894;6.040;2023-12-29T22:19:51;7.30;99.90
52531;DHT22;38441;52.894;6.040;2023-12-29T22:22:17;7.30;99.90
52531;DHT22;38441;52.894;6.040;2023-12-29T22:24:43;7.30;99.90
52531;DHT22;38441;52.894;6.040;2023-12-29T22:27:08;7.30;99.90
52531;DHT22;38441;52.894;6.040;2023-12-29T22:29:34;7.60;99.90
52531;DHT22;38441;52.894;6.040;2023-12-29T22:32:01;7.20;99.90
52531;DHT22;38441;52.894;6.040;2023-12-29T22:34:27;7.30;99.90
52531;DHT22;38441;52.894;6.040;2023-12-29T22:36:53;7.70;99.90
52531;DHT22;38441;52.894;6.040;2023-12-29T22:39:18;7.10;99.90
52531;DHT22;38441;52.894;6.040;2023-12-29T22:41:44;7.40;99.90
52531;DHT22;38441;52.894;6.040;2023-12-29T22:44:10;7.70;99.90
52531;DHT22;38441;52.894;6.040;2023-12-29T22:46:35;7.20;99.90
52531;DHT22;38441;52.894;6.040;2023-12-29T22:49:01;7.20;99.90
52531;DHT22;38441;52.894;6.040;2023-12-29T22:51:26;7.10;99.90
52531;DHT22;38441;52.894;6.040;2023-12-29T22:53:54;7.10;99.90
52531;DHT22;38441;52.894;6.040;2023-12-29T22:56:20;7.00;99.90
52531;DHT22;38441;52.894;6.040;2023-12-29T22:58:47;7.10;99.90
52531;DHT22;38441;52.894;6.040;2023-12-29T23:01:20;7.10;99.90
52531;DHT22;38441;52.894;6.040;2023-12-29T23:03:46;7.40;99.90
52531;DHT22;38441;52.894;6.040;2023-12-29T23:06:12;7.50;99.90
52531;DHT22;38441;52.894;6.040;2023-12-29T23:08:38;7.10;99.90
52531;DHT22;38441;52.894;6.040;2023-12-29T23:11:04;7.40;99.90
52531;DHT22;38441;52.894;6.040;2023-12-29T23:13:29;7.00;99.90
52531;DHT22;38441;52.894;6.040;2023-12-29T23:15:56;7.10;99.90
52531;DHT22;38441;52.894;6.040;2023-12-29T23:18:21;7.00;99.90
52531;DHT22;38441;52.894;6.040;2023-12-29T23:20:47;7.00;99.90
52531;DHT22;38441;52.894;6.040;2023-12-29T23:23:13;7.00;99.90
52531;DHT22;38441;52.894;6.040;2023-12-29T23:25:39;7.00;99.90
52531;DHT22;38441;52.894;6.040;2023-12-29T23:28:04;6.90;99.90
52531;DHT22;38441;52.894;6.040;2023-12-29T23:30:30;7.00;99.90
52531;DHT22;38441;52.894;6.040;2023-12-29T23:32:56;6.90;99.90
52531;DHT22;38441;52.894;6.040;2023-12-29T23:35:21;6.90;99.90
52531;DHT22;38441;52.894;6.040;2023-12-29T23:37:47;7.20;99.90
52531;DHT22;38441;52.894;6.040;2023-12-29T23:40:13;6.80;99.90
52531;DHT22;38441;52.894;6.040;2023-12-29T23:42:38;7.20;99.90
52531;DHT22;38441;52.894;6.040;2023-12-29T23:45:04;7.00;99.90
52531;DHT22;38441;52.894;6.040;2023-12-29T23:47:30;6.80;99.90
52531;DHT22;38441;52.894;6.040;2023-12-29T23:49:56;6.80;99.90
52531;DHT22;38441;52.894;6.040;2023-12-29T23:52:23;6.80;99.90
52531;DHT22;38441;52.894;6.040;2023-12-29T23:54:48;7.10;99.90
52531;DHT22;38441;52.894;6.040;2023-12-29T23:57:14;6.70;99.90
52531;DHT22;38441;52.894;6.040;2023-12-29T23:59:40;6.90;99.90
